createdAt,value
2023-04-28T00:00:55.900Z,31.94
2023-04-28T00:01:55.928Z,31.94
2023-04-28T00:02:55.989Z,31.94
2023-04-28T00:03:56.099Z,31.93
2023-04-28T00:04:56.168Z,31.90
2023-04-28T00:05:55.958Z,31.90
2023-04-28T00:06:55.879Z,31.92
2023-04-28T00:07:55.836Z,31.84
2023-04-28T00:08:55.851Z,31.87
2023-04-28T00:09:55.842Z,31.86
2023-04-28T00:10:55.822Z,31.80
2023-04-28T00:11:55.843Z,31.78
2023-04-28T00:12:55.815Z,31.79
2023-04-28T00:13:55.810Z,31.79
2023-04-28T00:14:55.820Z,31.79
2023-04-28T00:15:55.847Z,31.73
2023-04-28T00:16:56.415Z,31.76
2023-04-28T00:17:55.924Z,31.75
2023-04-28T00:18:55.792Z,31.78
2023-04-28T00:19:55.788Z,31.80
2023-04-28T00:20:55.762Z,31.79
2023-04-28T00:21:55.852Z,31.79
2023-04-28T00:22:55.793Z,31.78
2023-04-28T00:23:55.745Z,31.77
2023-04-28T00:24:55.739Z,31.82
2023-04-28T00:25:55.734Z,31.82
2023-04-28T00:26:55.734Z,31.82
2023-04-28T00:27:55.701Z,31.80
2023-04-28T00:28:55.704Z,31.77
2023-04-28T00:29:55.708Z,31.76
2023-04-28T00:30:55.689Z,31.79
2023-04-28T00:31:56.348Z,31.75
2023-04-28T00:32:55.793Z,31.75
2023-04-28T00:33:55.675Z,31.79
2023-04-28T00:34:55.675Z,31.76
2023-04-28T00:35:55.643Z,31.79
2023-04-28T00:36:55.679Z,31.79
2023-04-28T00:37:55.664Z,31.80
2023-04-28T00:38:55.678Z,31.83
2023-04-28T00:39:55.669Z,31.82
2023-04-28T00:40:56.276Z,31.79
2023-04-28T00:41:55.614Z,31.79
2023-04-28T00:42:55.627Z,31.82
2023-04-28T00:43:55.612Z,31.77
2023-04-28T00:44:55.599Z,31.82
2023-04-28T00:45:55.694Z,31.73
2023-04-28T00:46:55.559Z,31.76
2023-04-28T00:47:55.580Z,31.73
2023-04-28T00:48:55.572Z,31.73
2023-04-28T00:49:55.534Z,31.72
2023-04-28T00:50:55.577Z,31.75
2023-04-28T00:51:55.564Z,31.72
2023-04-28T00:52:55.526Z,31.77
2023-04-28T00:53:55.566Z,31.73
2023-04-28T00:54:55.529Z,31.75
2023-04-28T00:55:55.523Z,31.72
2023-04-28T00:56:55.510Z,31.79
2023-04-28T00:57:55.533Z,31.70
2023-04-28T00:58:55.484Z,31.73
2023-04-28T00:59:55.500Z,31.67
2023-04-28T01:00:55.584Z,31.72
2023-04-28T01:01:55.512Z,31.73
2023-04-28T01:02:55.710Z,31.69
2023-04-28T01:03:55.693Z,31.73
2023-04-28T01:04:55.599Z,31.68
2023-04-28T01:05:55.651Z,31.63
2023-04-28T01:06:55.636Z,31.68
2023-04-28T01:07:55.655Z,31.69
2023-04-28T01:08:55.687Z,31.68
2023-04-28T01:09:55.720Z,31.72
2023-04-28T01:10:55.725Z,31.71
2023-04-28T01:11:55.781Z,31.68
2023-04-28T01:12:55.776Z,31.72
2023-04-28T01:13:55.791Z,31.69
2023-04-28T01:14:55.842Z,31.68
2023-04-28T01:15:55.904Z,31.62
2023-04-28T01:16:56.009Z,31.63
2023-04-28T01:17:55.988Z,31.61
2023-04-28T01:18:56.038Z,31.64
2023-04-28T01:19:56.045Z,31.70
2023-04-28T01:20:56.143Z,31.64
2023-04-28T01:21:56.119Z,31.66
2023-04-28T01:22:56.163Z,31.61
2023-04-28T01:23:56.209Z,31.65
2023-04-28T01:24:56.279Z,31.62
2023-04-28T01:25:56.300Z,31.57
2023-04-28T01:26:56.395Z,31.61
2023-04-28T01:27:56.448Z,31.58
2023-04-28T01:28:56.456Z,31.62
2023-04-28T01:29:56.497Z,31.64
2023-04-28T01:30:56.584Z,31.56
2023-04-28T01:31:56.628Z,31.64
2023-04-28T01:32:56.739Z,31.65
2023-04-28T01:33:56.710Z,31.57
2023-04-28T01:34:56.731Z,31.58
2023-04-28T01:35:56.786Z,31.58
2023-04-28T01:36:56.806Z,31.54
2023-04-28T01:37:56.824Z,31.59
2023-04-28T01:38:56.896Z,31.58
2023-04-28T01:39:56.916Z,31.67
2023-04-28T01:40:56.944Z,31.60
2023-04-28T01:41:56.971Z,31.59
2023-04-28T01:42:57.020Z,31.60
2023-04-28T01:43:57.064Z,31.57
2023-04-28T01:44:57.116Z,31.53
2023-04-28T01:45:57.215Z,31.61
2023-04-28T01:46:57.255Z,31.59
2023-04-28T01:47:57.349Z,31.58
2023-04-28T01:48:57.341Z,31.50
2023-04-28T01:49:57.422Z,31.57
2023-04-28T01:50:57.495Z,31.60
2023-04-28T01:51:57.499Z,31.53
2023-04-28T01:52:57.602Z,31.55
2023-04-28T01:53:57.636Z,31.55
2023-04-28T01:54:57.666Z,31.55
2023-04-28T01:55:57.782Z,31.54
2023-04-28T01:56:57.794Z,31.50
2023-04-28T01:57:57.818Z,31.50
2023-04-28T01:58:57.865Z,31.53
2023-04-28T01:59:57.923Z,31.51
2023-04-28T02:00:58.044Z,31.56
2023-04-28T02:01:58.051Z,31.53
2023-04-28T02:02:58.167Z,31.55
2023-04-28T02:03:58.231Z,31.57
2023-04-28T02:04:58.274Z,31.47
2023-04-28T02:05:58.221Z,31.51
2023-04-28T02:06:58.238Z,31.57
2023-04-28T02:07:58.282Z,31.57
2023-04-28T02:08:58.336Z,31.59
2023-04-28T02:09:58.384Z,31.58
2023-04-28T02:10:58.460Z,31.57
2023-04-28T02:11:58.491Z,31.57
2023-04-28T02:12:58.529Z,31.57
2023-04-28T02:13:58.570Z,31.57
2023-04-28T02:14:58.638Z,31.54
2023-04-28T02:15:58.721Z,31.58
2023-04-28T02:16:58.736Z,31.54
2023-04-28T02:17:58.781Z,31.54
2023-04-28T02:18:58.770Z,31.63
2023-04-28T02:19:58.859Z,31.56
2023-04-28T02:20:58.874Z,31.61
2023-04-28T02:21:58.951Z,31.58
2023-04-28T02:22:58.942Z,31.55
2023-04-28T02:23:59.008Z,31.54
2023-04-28T02:24:59.032Z,31.54
2023-04-28T02:25:59.047Z,31.50
2023-04-28T02:26:59.092Z,31.51
2023-04-28T02:27:59.139Z,31.54
2023-04-28T02:28:59.152Z,31.50
2023-04-28T02:29:59.199Z,31.51
2023-04-28T02:30:59.305Z,31.56
2023-04-28T02:31:59.315Z,31.54
2023-04-28T02:32:59.369Z,31.51
2023-04-28T02:33:59.368Z,31.48
2023-04-28T02:34:59.427Z,31.53
2023-04-28T02:35:59.537Z,31.49
2023-04-28T02:36:59.506Z,31.54
2023-04-28T02:37:59.585Z,31.56
2023-04-28T02:38:59.649Z,31.51
2023-04-28T02:39:59.692Z,31.47
2023-04-28T02:40:59.825Z,31.45
2023-04-28T02:41:59.820Z,31.43
2023-04-28T02:42:59.912Z,31.48
2023-04-28T02:43:59.919Z,31.42
2023-04-28T02:45:00.028Z,31.44
2023-04-28T02:46:00.148Z,31.46
2023-04-28T02:47:00.205Z,31.44
2023-04-28T02:48:00.228Z,31.44
2023-04-28T02:49:00.189Z,31.45
2023-04-28T02:50:00.265Z,31.49
2023-04-28T02:51:00.333Z,31.47
2023-04-28T02:52:00.361Z,31.45
2023-04-28T02:53:00.427Z,31.44
2023-04-28T02:54:00.492Z,31.41
2023-04-28T02:55:00.534Z,31.40
2023-04-28T02:56:00.607Z,31.42
2023-04-28T02:57:00.666Z,31.43
2023-04-28T02:58:00.734Z,31.43
2023-04-28T02:59:00.795Z,31.36
2023-04-28T03:00:00.875Z,31.42
2023-04-28T03:01:00.942Z,31.43
2023-04-28T03:02:01.024Z,31.43
2023-04-28T03:03:01.175Z,31.47
2023-04-28T03:04:01.523Z,31.49
2023-04-28T03:05:01.277Z,31.50
2023-04-28T03:06:01.254Z,31.43
2023-04-28T03:07:01.295Z,31.43
2023-04-28T03:08:01.338Z,31.49
2023-04-28T03:09:01.411Z,31.40
2023-04-28T03:10:01.496Z,31.49
2023-04-28T03:11:01.554Z,31.43
2023-04-28T03:12:01.624Z,31.47
2023-04-28T03:13:01.669Z,31.41
2023-04-28T03:14:01.724Z,31.44
2023-04-28T03:15:01.794Z,31.50
2023-04-28T03:16:01.948Z,31.40
2023-04-28T03:17:01.926Z,31.45
2023-04-28T03:18:01.997Z,31.45
2023-04-28T03:19:02.116Z,31.45
2023-04-28T03:20:02.116Z,31.43
2023-04-28T03:21:02.195Z,31.41
2023-04-28T03:22:02.246Z,31.41
2023-04-28T03:23:02.293Z,31.45
2023-04-28T03:24:04.800Z,31.45
2023-04-28T03:25:02.371Z,31.43
2023-04-28T03:26:02.402Z,31.43
2023-04-28T03:27:02.403Z,31.43
2023-04-28T03:28:02.333Z,31.44
2023-04-28T03:29:02.332Z,31.44
2023-04-28T03:30:02.335Z,31.43
2023-04-28T03:31:02.325Z,31.42
2023-04-28T03:32:02.347Z,31.44
2023-04-28T03:33:02.397Z,31.43
2023-04-28T03:34:02.304Z,31.43
2023-04-28T03:35:02.297Z,31.47
2023-04-28T03:36:02.319Z,31.47
2023-04-28T03:37:02.281Z,31.47
2023-04-28T03:38:02.284Z,31.48
2023-04-28T03:39:02.274Z,31.51
2023-04-28T03:40:02.242Z,31.41
2023-04-28T03:41:02.282Z,31.44
2023-04-28T03:42:02.228Z,31.43
2023-04-28T03:43:04.458Z,31.42
2023-04-28T03:44:02.409Z,31.48
2023-04-28T03:45:02.495Z,31.44
2023-04-28T03:46:02.623Z,31.47
2023-04-28T03:47:02.866Z,31.41
2023-04-28T03:48:02.697Z,31.49
2023-04-28T03:49:02.741Z,31.41
2023-04-28T03:50:02.750Z,31.45
2023-04-28T03:51:02.810Z,31.44
2023-04-28T03:52:03.354Z,31.49
2023-04-28T03:53:02.919Z,31.42
2023-04-28T03:54:02.977Z,31.40
2023-04-28T03:55:03.047Z,31.46
2023-04-28T03:56:03.123Z,31.41
2023-04-28T03:57:03.172Z,31.37
2023-04-28T03:58:03.244Z,31.42
2023-04-28T03:59:03.312Z,31.36
2023-04-28T04:00:03.360Z,31.36
2023-04-28T04:01:03.457Z,31.34
2023-04-28T04:02:03.517Z,31.30
2023-04-28T04:03:03.709Z,31.23
2023-04-28T04:04:03.782Z,31.34
2023-04-28T04:05:03.881Z,31.33
2023-04-28T04:06:03.752Z,31.37
2023-04-28T04:07:03.814Z,31.32
2023-04-28T04:08:03.891Z,31.29
2023-04-28T04:09:03.952Z,31.29
2023-04-28T04:10:04.538Z,31.29
2023-04-28T04:11:04.056Z,31.33
2023-04-28T04:12:04.124Z,31.32
2023-04-28T04:13:04.185Z,31.28
2023-04-28T04:14:04.259Z,31.30
2023-04-28T04:15:04.274Z,31.34
2023-04-28T04:16:04.495Z,31.36
2023-04-28T04:17:04.403Z,31.29
2023-04-28T04:18:04.569Z,31.42
2023-04-28T04:19:04.555Z,31.32
2023-04-28T04:20:04.588Z,31.34
2023-04-28T04:21:04.643Z,31.37
2023-04-28T04:22:04.720Z,31.33
2023-04-28T04:23:04.788Z,31.34
2023-04-28T04:24:04.853Z,31.33
2023-04-28T04:25:04.903Z,31.33
2023-04-28T04:26:04.952Z,31.34
2023-04-28T04:27:05.065Z,31.33
2023-04-28T04:28:05.082Z,31.32
2023-04-28T04:29:05.142Z,31.29
2023-04-28T04:30:05.214Z,31.29
2023-04-28T04:31:05.409Z,31.30
2023-04-28T04:32:05.330Z,31.28
2023-04-28T04:33:05.402Z,31.31
2023-04-28T04:34:05.445Z,31.30
2023-04-28T04:35:05.535Z,31.36
2023-04-28T04:36:05.589Z,31.37
2023-04-28T04:37:05.657Z,31.29
2023-04-28T04:38:05.728Z,31.29
2023-04-28T04:39:05.748Z,31.30
2023-04-28T04:40:05.829Z,31.33
2023-04-28T04:41:05.882Z,31.33
2023-04-28T04:42:16.881Z,31.33
2023-04-28T04:43:06.939Z,31.33
2023-04-28T04:44:05.941Z,31.30
2023-04-28T04:45:05.931Z,31.40
2023-04-28T04:46:05.946Z,31.36
2023-04-28T04:47:05.917Z,31.38
2023-04-28T04:48:05.988Z,31.39
2023-04-28T04:49:05.888Z,31.33
2023-04-28T04:50:05.887Z,31.36
2023-04-28T04:51:05.876Z,31.36
2023-04-28T04:52:05.945Z,31.39
2023-04-28T04:53:06.006Z,31.33
2023-04-28T04:54:06.078Z,31.36
2023-04-28T04:55:06.112Z,31.30
2023-04-28T04:56:06.944Z,31.43
2023-04-28T04:57:06.271Z,31.33
2023-04-28T04:58:06.301Z,31.33
2023-04-28T04:59:06.383Z,31.34
2023-04-28T05:00:06.437Z,31.33
2023-04-28T05:01:06.489Z,31.36
2023-04-28T05:02:06.626Z,31.40
2023-04-28T05:03:06.791Z,31.36
2023-04-28T05:04:06.909Z,31.30
2023-04-28T05:05:19.657Z,31.36
2023-04-28T05:06:07.751Z,31.30
2023-04-28T05:07:06.735Z,31.26
2023-04-28T05:08:06.750Z,31.34
2023-04-28T05:09:06.753Z,31.34
2023-04-28T05:10:06.730Z,31.32
2023-04-28T05:11:06.694Z,31.29
2023-04-28T05:12:06.713Z,31.30
2023-04-28T05:13:06.733Z,31.29
2023-04-28T05:14:06.707Z,31.23
2023-04-28T05:15:06.772Z,31.23
2023-04-28T05:16:07.435Z,31.21
2023-04-28T05:17:06.930Z,31.18
2023-04-28T05:18:06.981Z,31.25
2023-04-28T05:19:07.048Z,31.21
2023-04-28T05:20:07.058Z,31.28
2023-04-28T05:21:07.150Z,31.23
2023-04-28T05:22:07.165Z,31.18
2023-04-28T05:23:07.237Z,31.13
2023-04-28T05:24:07.339Z,31.16
2023-04-28T05:25:07.367Z,31.15
2023-04-28T05:26:07.465Z,31.20
2023-04-28T05:27:07.473Z,31.17
2023-04-28T05:28:07.688Z,31.19
2023-04-28T05:29:07.759Z,31.20
2023-04-28T05:30:08.490Z,31.18
2023-04-28T05:31:07.688Z,31.14
2023-04-28T05:32:07.852Z,31.19
2023-04-28T05:33:07.997Z,31.15
2023-04-28T05:34:08.960Z,31.26
2023-04-28T05:35:07.993Z,31.10
2023-04-28T05:36:08.062Z,31.03
2023-04-28T05:37:08.063Z,31.17
2023-04-28T05:38:08.109Z,31.18
2023-04-28T05:39:08.142Z,31.67
2023-04-28T05:40:08.213Z,32.24
2023-04-28T05:41:08.228Z,32.50
2023-04-28T05:42:08.403Z,32.58
2023-04-28T05:43:08.906Z,32.70
2023-04-28T05:44:08.330Z,32.80
2023-04-28T05:45:08.349Z,32.90
2023-04-28T05:46:18.119Z,33.67
2023-04-28T05:47:09.354Z,33.68
2023-04-28T05:48:08.438Z,34.39
2023-04-28T05:49:08.439Z,34.35
2023-04-28T05:50:08.311Z,34.39
2023-04-28T05:51:08.353Z,34.29
2023-04-28T05:52:08.342Z,34.60
2023-04-28T05:53:08.298Z,34.57
2023-04-28T05:54:08.326Z,34.62
2023-04-28T05:55:08.280Z,34.70
2023-04-28T05:56:08.301Z,35.10
2023-04-28T05:57:08.296Z,35.27
2023-04-28T05:58:08.347Z,35.22
2023-04-28T05:59:08.353Z,35.45
2023-04-28T06:00:08.399Z,35.30
2023-04-28T06:01:08.410Z,35.58
2023-04-28T06:02:08.560Z,36.08
2023-04-28T06:03:08.600Z,35.99
2023-04-28T06:04:08.688Z,35.92
2023-04-28T06:05:08.824Z,35.96
2023-04-28T06:06:10.179Z,36.17
2023-04-28T06:07:08.726Z,36.04
2023-04-28T06:08:08.699Z,35.28
2023-04-28T06:09:08.688Z,35.01
2023-04-28T06:10:08.777Z,35.24
2023-04-28T06:11:08.774Z,34.08
2023-04-28T06:12:08.915Z,34.14
2023-04-28T06:13:08.871Z,34.44
2023-04-28T06:14:08.901Z,33.95
2023-04-28T06:15:08.958Z,34.19
2023-04-28T06:16:09.040Z,34.07
2023-04-28T06:17:09.061Z,34.06
2023-04-28T06:18:09.275Z,33.66
2023-04-28T06:19:09.137Z,34.08
2023-04-28T06:20:09.168Z,33.56
2023-04-28T06:21:09.181Z,33.30
2023-04-28T06:22:09.249Z,33.35
2023-04-28T06:23:09.311Z,33.62
2023-04-28T06:24:09.331Z,33.65
2023-04-28T06:25:09.368Z,33.29
2023-04-28T06:26:09.435Z,33.64
2023-04-28T06:27:09.537Z,33.07
2023-04-28T06:28:09.503Z,33.35
2023-04-28T06:29:09.567Z,32.94
2023-04-28T06:30:09.573Z,32.99
2023-04-28T06:31:09.689Z,33.02
2023-04-28T06:32:09.692Z,32.95
2023-04-28T06:33:09.726Z,33.39
2023-04-28T06:34:09.793Z,32.85
2023-04-28T06:35:09.843Z,32.26
2023-04-28T06:36:09.978Z,31.91
2023-04-28T06:37:10.032Z,32.11
2023-04-28T06:38:10.001Z,32.29
2023-04-28T06:39:10.015Z,32.32
2023-04-28T06:40:10.116Z,32.40
2023-04-28T06:41:10.142Z,32.44
2023-04-28T06:42:10.181Z,32.41
2023-04-28T06:43:10.289Z,32.44
2023-04-28T06:44:10.318Z,32.45
2023-04-28T06:45:10.358Z,32.48
2023-04-28T06:46:10.435Z,32.53
2023-04-28T06:47:10.545Z,32.51
2023-04-28T06:48:10.652Z,32.44
2023-04-28T06:49:10.849Z,32.54
2023-04-28T06:50:10.691Z,32.53
2023-04-28T06:51:10.707Z,32.57
2023-04-28T06:52:10.790Z,32.53
2023-04-28T06:53:10.832Z,32.59
2023-04-28T06:54:10.909Z,32.65
2023-04-28T06:55:11.040Z,32.53
2023-04-28T06:56:11.612Z,32.65
2023-04-28T06:57:11.117Z,32.58
2023-04-28T06:58:11.205Z,32.65
2023-04-28T06:59:11.223Z,32.58
2023-04-28T07:00:11.233Z,32.63
2023-04-28T07:01:11.377Z,32.56
2023-04-28T07:02:11.445Z,32.66
2023-04-28T07:03:11.621Z,32.53
2023-04-28T07:04:11.630Z,32.59
2023-04-28T07:05:11.570Z,32.59
2023-04-28T07:06:11.500Z,32.55
2023-04-28T07:07:11.542Z,32.58
2023-04-28T07:08:11.594Z,32.66
2023-04-28T07:09:11.565Z,32.92
2023-04-28T07:10:11.574Z,32.62
2023-04-28T07:11:11.600Z,32.40
2023-04-28T07:12:11.594Z,32.52
2023-04-28T07:13:11.628Z,32.67
2023-04-28T07:14:11.686Z,32.25
2023-04-28T07:15:11.688Z,32.29
2023-04-28T07:16:11.760Z,32.43
2023-04-28T07:17:11.824Z,32.49
2023-04-28T07:18:11.874Z,32.60
2023-04-28T07:19:11.846Z,32.77
2023-04-28T07:20:12.141Z,32.91
2023-04-28T07:21:11.973Z,33.01
2023-04-28T07:22:11.893Z,33.08
2023-04-28T07:23:11.906Z,33.16
2023-04-28T07:24:11.887Z,33.36
2023-04-28T07:25:11.930Z,33.40
2023-04-28T07:26:14.299Z,34.45
2023-04-28T07:27:11.939Z,34.66
2023-04-28T07:28:11.953Z,34.12
2023-04-28T07:29:11.917Z,33.97
2023-04-28T07:30:26.046Z,33.85
2023-04-28T07:31:12.929Z,34.39
2023-04-28T07:32:12.532Z,34.56
2023-04-28T07:33:11.979Z,34.77
2023-04-28T07:34:11.904Z,34.94
2023-04-28T07:35:11.939Z,35.24
2023-04-28T07:36:11.890Z,35.60
2023-04-28T07:37:11.883Z,36.15
2023-04-28T07:38:11.875Z,36.92
2023-04-28T07:39:11.860Z,36.08
2023-04-28T07:40:11.911Z,36.37
2023-04-28T07:41:11.910Z,36.24
2023-04-28T07:42:11.817Z,36.71
2023-04-28T07:43:11.817Z,36.27
2023-04-28T07:44:11.871Z,36.12
2023-04-28T07:45:11.845Z,36.26
2023-04-28T07:46:11.978Z,35.90
2023-04-28T07:47:11.839Z,35.78
2023-04-28T07:48:11.881Z,35.92
2023-04-28T07:49:11.880Z,36.61
2023-04-28T07:50:11.872Z,36.91
2023-04-28T07:51:11.871Z,36.82
2023-04-28T07:52:11.889Z,37.18
2023-04-28T07:53:12.473Z,37.17
2023-04-28T07:54:11.958Z,37.22
2023-04-28T07:55:12.035Z,37.47
2023-04-28T07:56:12.096Z,37.60
2023-04-28T07:57:12.127Z,37.55
2023-04-28T07:58:12.967Z,37.81
2023-04-28T07:59:12.208Z,38.12
2023-04-28T08:00:12.317Z,37.87
2023-04-28T08:01:12.319Z,38.53
2023-04-28T08:02:12.386Z,38.18
2023-04-28T08:03:12.601Z,38.03
2023-04-28T08:04:12.502Z,38.24
2023-04-28T08:05:12.720Z,38.22
2023-04-28T08:06:12.553Z,38.40
2023-04-28T08:07:12.492Z,38.62
2023-04-28T08:08:12.503Z,38.48
2023-04-28T08:09:12.492Z,38.98
2023-04-28T08:10:12.567Z,38.78
2023-04-28T08:11:12.499Z,39.04
2023-04-28T08:12:12.574Z,39.01
2023-04-28T08:13:12.536Z,38.88
2023-04-28T08:14:12.500Z,38.20
2023-04-28T08:15:12.511Z,38.23
2023-04-28T08:16:12.568Z,37.57
2023-04-28T08:17:12.527Z,37.61
2023-04-28T08:18:12.609Z,37.45
2023-04-28T08:19:12.599Z,37.57
2023-04-28T08:20:12.568Z,37.69
2023-04-28T08:21:12.623Z,37.88
2023-04-28T08:22:12.608Z,37.99
2023-04-28T08:23:12.934Z,38.07
2023-04-28T08:24:12.629Z,38.38
2023-04-28T08:25:12.651Z,38.34
2023-04-28T08:26:12.622Z,38.24
2023-04-28T08:27:12.626Z,37.75
2023-04-28T08:28:12.697Z,35.38
2023-04-28T08:29:12.629Z,35.74
2023-04-28T08:30:12.694Z,35.87
2023-04-28T08:31:12.741Z,35.07
2023-04-28T08:32:12.741Z,34.62
2023-04-28T08:33:13.039Z,34.19
2023-04-28T08:34:15.165Z,34.04
2023-04-28T08:35:12.774Z,34.12
2023-04-28T08:36:13.457Z,34.07
2023-04-28T08:37:12.826Z,33.47
2023-04-28T08:38:12.795Z,34.09
2023-04-28T08:39:13.717Z,34.43
2023-04-28T08:40:12.792Z,34.43
2023-04-28T08:41:12.786Z,34.63
2023-04-28T08:42:12.797Z,34.78
2023-04-28T08:43:12.722Z,35.25
2023-04-28T08:44:12.735Z,35.43
2023-04-28T08:45:12.879Z,35.30
2023-04-28T08:46:13.473Z,35.17
2023-04-28T08:47:12.792Z,35.19
2023-04-28T08:48:12.767Z,35.28
2023-04-28T08:49:12.666Z,35.25
2023-04-28T08:50:12.656Z,35.23
2023-04-28T08:51:12.749Z,35.15
2023-04-28T08:52:12.973Z,35.15
2023-04-28T08:53:12.652Z,35.26
2023-04-28T08:54:25.655Z,35.27
2023-04-28T08:55:13.713Z,35.22
2023-04-28T08:56:12.634Z,35.21
2023-04-28T08:57:12.634Z,35.35
2023-04-28T08:58:12.625Z,35.16
2023-04-28T08:59:12.618Z,35.28
2023-04-28T09:00:12.613Z,34.94
2023-04-28T09:01:12.601Z,34.78
2023-04-28T09:02:12.649Z,34.87
2023-04-28T09:03:12.686Z,34.94
2023-04-28T09:04:14.363Z,35.02
2023-04-28T09:05:12.830Z,35.15
2023-04-28T09:06:12.574Z,35.23
2023-04-28T09:07:12.680Z,35.20
2023-04-28T09:08:12.566Z,35.21
2023-04-28T09:09:12.596Z,35.33
2023-04-28T09:10:12.677Z,35.16
2023-04-28T09:11:12.691Z,35.11
2023-04-28T09:12:12.753Z,35.06
2023-04-28T09:13:12.802Z,34.96
2023-04-28T09:14:12.878Z,34.83
2023-04-28T09:15:12.973Z,35.40
2023-04-28T09:16:13.022Z,34.79
2023-04-28T09:17:13.124Z,34.77
2023-04-28T09:18:13.129Z,34.70
2023-04-28T09:19:13.220Z,34.83
2023-04-28T09:20:13.241Z,34.72
2023-04-28T09:21:13.308Z,34.75
2023-04-28T09:23:13.343Z,34.60
2023-04-28T09:24:13.380Z,34.75
2023-04-28T09:25:13.352Z,34.65
2023-04-28T09:26:13.381Z,34.94
2023-04-28T09:27:13.320Z,34.42
2023-04-28T09:28:13.365Z,34.43
2023-04-28T09:29:13.329Z,34.40
2023-04-28T09:30:13.304Z,34.42
2023-04-28T09:31:13.308Z,34.19
2023-04-28T09:32:13.372Z,34.18
2023-04-28T09:33:13.350Z,34.32
2023-04-28T09:34:13.285Z,33.85
2023-04-28T09:35:13.998Z,34.26
2023-04-28T09:36:13.409Z,33.95
2023-04-28T09:37:13.401Z,34.05
2023-04-28T09:38:13.283Z,34.16
2023-04-28T09:39:13.269Z,34.34
2023-04-28T09:40:13.261Z,34.36
2023-04-28T09:41:13.262Z,34.43
2023-04-28T09:42:13.235Z,34.52
2023-04-28T09:43:21.334Z,34.57
2023-04-28T09:44:15.145Z,34.62
2023-04-28T09:45:13.216Z,34.60
2023-04-28T09:46:13.247Z,34.60
2023-04-28T09:47:13.220Z,34.60
2023-04-28T09:48:13.252Z,34.61
2023-04-28T09:49:13.184Z,34.62
2023-04-28T09:50:13.170Z,34.67
2023-04-28T09:51:13.330Z,34.61
2023-04-28T09:52:13.175Z,34.69
2023-04-28T09:53:13.169Z,34.61
2023-04-28T09:54:13.253Z,34.69
2023-04-28T09:55:13.172Z,34.73
2023-04-28T09:56:13.275Z,34.67
2023-04-28T09:57:13.248Z,34.71
2023-04-28T09:58:13.533Z,34.71
2023-04-28T09:59:13.331Z,34.76
2023-04-28T10:00:13.399Z,34.60
2023-04-28T10:01:13.558Z,34.71
2023-04-28T10:02:39.999Z,34.83
2023-04-28T10:03:14.604Z,34.91
2023-04-28T10:04:13.572Z,34.86
2023-04-28T10:05:13.510Z,34.81
2023-04-28T10:06:13.443Z,34.87
2023-04-28T10:07:13.420Z,34.93
2023-04-28T10:08:13.451Z,34.93
2023-04-28T10:09:13.460Z,34.92
2023-04-28T10:10:13.563Z,34.97
2023-04-28T10:11:13.441Z,34.94
2023-04-28T10:12:13.472Z,34.90
2023-04-28T10:13:13.546Z,34.91
2023-04-28T10:14:13.585Z,34.93
2023-04-28T10:15:13.734Z,34.96
2023-04-28T10:16:13.717Z,34.92
2023-04-28T10:17:13.815Z,34.94
2023-04-28T10:18:13.845Z,34.93
2023-04-28T10:19:14.490Z,34.92
2023-04-28T10:20:14.052Z,34.91
2023-04-28T10:21:14.042Z,34.92
2023-04-28T10:22:14.094Z,34.88
2023-04-28T10:23:14.163Z,34.92
2023-04-28T10:24:14.217Z,34.89
2023-04-28T10:25:14.229Z,34.89
2023-04-28T10:26:14.239Z,34.94
2023-04-28T10:27:14.262Z,35.09
2023-04-28T10:28:14.253Z,35.22
2023-04-28T10:29:19.514Z,35.31
2023-04-28T10:30:23.388Z,35.32
2023-04-28T10:31:16.136Z,35.30
2023-04-28T10:32:14.381Z,35.52
2023-04-28T10:33:14.392Z,35.57
2023-04-28T10:34:14.278Z,35.79
2023-04-28T10:35:14.251Z,35.95
2023-04-28T10:36:14.996Z,35.99
2023-04-28T10:37:14.202Z,36.14
2023-04-28T10:38:14.407Z,36.28
2023-04-28T10:39:14.255Z,36.52
2023-04-28T10:40:14.293Z,36.57
2023-04-28T10:41:14.360Z,36.88
2023-04-28T10:42:14.395Z,36.89
2023-04-28T10:43:14.393Z,37.09
2023-04-28T10:44:14.454Z,37.03
2023-04-28T10:45:14.484Z,37.28
2023-04-28T10:46:14.537Z,37.36
2023-04-28T10:47:14.571Z,37.34
2023-04-28T10:48:14.581Z,37.26
2023-04-28T10:49:14.732Z,37.51
2023-04-28T10:50:14.638Z,37.36
2023-04-28T10:51:14.650Z,37.58
2023-04-28T10:52:14.657Z,37.52
2023-04-28T10:53:14.670Z,37.63
2023-04-28T10:54:14.716Z,37.80
2023-04-28T10:55:22.072Z,37.89
2023-04-28T10:56:15.696Z,37.85
2023-04-28T10:57:14.691Z,37.90
2023-04-28T10:58:14.688Z,37.91
2023-04-28T10:59:14.695Z,37.90
2023-04-28T11:00:14.663Z,37.93
2023-04-28T11:01:14.678Z,37.97
2023-04-28T11:02:14.673Z,37.98
2023-04-28T11:03:14.763Z,37.86
2023-04-28T11:04:14.789Z,38.03
2023-04-28T11:05:14.837Z,38.11
2023-04-28T11:06:14.635Z,38.30
2023-04-28T11:07:14.676Z,38.44
2023-04-28T11:08:14.602Z,38.41
2023-04-28T11:09:14.636Z,38.18
2023-04-28T11:10:14.583Z,38.24
2023-04-28T11:11:14.577Z,38.27
2023-04-28T11:12:14.579Z,38.28
2023-04-28T11:13:14.587Z,37.91
2023-04-28T11:14:14.570Z,38.23
2023-04-28T11:15:14.584Z,38.33
2023-04-28T11:16:14.573Z,38.54
2023-04-28T11:17:14.585Z,38.40
2023-04-28T11:18:14.668Z,38.58
2023-04-28T11:19:14.564Z,38.77
2023-04-28T11:20:14.514Z,38.46
2023-04-28T11:21:14.527Z,38.56
2023-04-28T11:22:14.561Z,38.67
2023-04-28T11:23:14.526Z,38.74
2023-04-28T11:24:14.534Z,38.76
2023-04-28T11:25:14.498Z,38.71
2023-04-28T11:26:14.570Z,38.80
2023-04-28T11:27:14.509Z,38.71
2023-04-28T11:28:14.482Z,38.83
2023-04-28T11:29:14.471Z,38.89
2023-04-28T11:30:14.474Z,38.70
2023-04-28T11:31:14.490Z,38.83
2023-04-28T11:32:14.589Z,38.97
2023-04-28T11:33:14.539Z,38.96
2023-04-28T11:34:14.517Z,39.00
2023-04-28T11:35:14.544Z,38.97
2023-04-28T11:36:14.549Z,38.94
2023-04-28T11:37:14.822Z,38.81
2023-04-28T11:38:14.652Z,38.87
2023-04-28T11:39:14.712Z,38.84
2023-04-28T11:40:14.792Z,38.71
2023-04-28T11:41:14.806Z,38.80
2023-04-28T11:42:14.866Z,38.80
2023-04-28T11:43:14.892Z,38.86
2023-04-28T11:44:14.976Z,38.89
2023-04-28T11:45:15.010Z,38.94
2023-04-28T11:46:15.105Z,38.91
2023-04-28T11:47:15.074Z,38.92
2023-04-28T11:48:15.176Z,38.94
2023-04-28T11:49:15.204Z,38.82
2023-04-28T11:50:15.251Z,38.90
2023-04-28T11:51:15.278Z,38.89
2023-04-28T11:52:15.359Z,38.98
2023-04-28T11:53:15.405Z,38.98
2023-04-28T11:54:15.426Z,38.87
2023-04-28T11:55:15.534Z,38.95
2023-04-28T11:56:15.555Z,38.93
2023-04-28T11:57:15.604Z,39.01
2023-04-28T11:58:15.678Z,38.78
2023-04-28T11:59:15.723Z,38.92
2023-04-28T12:00:15.826Z,38.85
2023-04-28T12:01:15.865Z,38.92
2023-04-28T12:02:15.991Z,38.82
2023-04-28T12:03:16.137Z,38.83
2023-04-28T12:04:16.220Z,38.82
2023-04-28T12:05:16.098Z,38.89
2023-04-28T12:06:16.150Z,38.84
2023-04-28T12:07:16.237Z,38.77
2023-04-28T12:08:16.270Z,38.69
2023-04-28T12:09:16.341Z,38.81
2023-04-28T12:10:16.382Z,38.84
2023-04-28T12:11:18.535Z,38.75
2023-04-28T12:12:18.322Z,38.61
2023-04-28T12:13:16.481Z,38.68
2023-04-28T12:14:16.401Z,38.70
2023-04-28T12:15:17.976Z,38.74
2023-04-28T12:16:16.450Z,38.66
2023-04-28T12:17:16.389Z,38.54
2023-04-28T12:18:16.419Z,38.69
2023-04-28T12:19:16.413Z,38.66
2023-04-28T12:20:16.436Z,38.58
2023-04-28T12:21:16.462Z,38.54
2023-04-28T12:22:16.493Z,38.58
2023-04-28T12:23:16.532Z,38.60
2023-04-28T12:24:16.535Z,38.62
2023-04-28T12:25:16.554Z,38.59
2023-04-28T12:26:16.544Z,38.55
2023-04-28T12:27:16.630Z,38.49
2023-04-28T12:28:16.565Z,38.55
2023-04-28T12:29:16.608Z,38.56
2023-04-28T12:30:16.581Z,38.51
2023-04-28T12:31:16.623Z,38.46
2023-04-28T12:32:16.532Z,38.55
2023-04-28T12:33:16.542Z,38.55
2023-04-28T12:34:16.553Z,38.52
2023-04-28T12:35:16.650Z,38.52
2023-04-28T12:36:16.550Z,38.53
2023-04-28T12:37:16.555Z,38.44
2023-04-28T12:38:16.589Z,38.49
2023-04-28T12:39:16.599Z,38.47
2023-04-28T12:40:16.585Z,38.46
2023-04-28T12:41:16.548Z,38.42
2023-04-28T12:42:16.565Z,38.42
2023-04-28T12:43:16.575Z,38.37
2023-04-28T12:44:16.542Z,38.32
2023-04-28T12:45:16.583Z,38.27
2023-04-28T12:46:16.558Z,38.37
2023-04-28T12:47:16.519Z,38.38
2023-04-28T12:48:16.579Z,38.26
2023-04-28T12:49:16.543Z,38.20
2023-04-28T12:50:16.513Z,38.28
2023-04-28T12:51:16.518Z,38.29
2023-04-28T12:52:16.503Z,38.27
2023-04-28T12:53:16.552Z,38.29
2023-04-28T12:54:16.529Z,38.23